createdAt,value
2019-01-21T00:00:03.749Z,85.83
2019-01-21T00:02:33.216Z,85.91
2019-01-21T00:05:01.827Z,85.62
2019-01-21T00:07:29.510Z,85.48
2019-01-21T00:09:57.093Z,85.52
2019-01-21T00:12:24.816Z,85.56
2019-01-21T00:14:52.539Z,85.48
2019-01-21T00:17:22.376Z,85.39
2019-01-21T00:19:49.718Z,85.43
2019-01-21T00:22:17.436Z,85.52
2019-01-21T00:24:45.007Z,85.38
2019-01-21T00:27:12.697Z,85.31
2019-01-21T00:29:42.086Z,85.21
2019-01-21T00:32:09.759Z,85.08
2019-01-21T00:34:37.344Z,85.10
2019-01-21T00:37:04.991Z,85.03
2019-01-21T00:39:32.588Z,85.06
2019-01-21T00:42:00.296Z,84.96
2019-01-21T00:44:27.887Z,84.95
2019-01-21T00:46:55.618Z,85.25
2019-01-21T00:49:23.169Z,85.33
2019-01-21T00:51:50.871Z,85.27
2019-01-21T00:54:18.482Z,85.35
2019-01-21T00:56:46.154Z,85.27
2019-01-21T00:59:13.737Z,85.33
2019-01-21T01:01:41.412Z,85.55
2019-01-21T01:04:09.040Z,85.45
2019-01-21T01:06:36.709Z,85.58
2019-01-21T01:09:06.339Z,85.60
2019-01-21T01:11:33.979Z,85.61
2019-01-21T01:14:01.580Z,85.73
2019-01-21T01:16:29.243Z,85.65
2019-01-21T01:18:56.893Z,85.42
2019-01-21T01:21:24.486Z,85.47
2019-01-21T01:23:52.095Z,85.54
2019-01-21T01:26:19.729Z,85.58
2019-01-21T01:28:47.379Z,85.64
2019-01-21T01:31:14.986Z,85.67
2019-01-21T01:33:42.689Z,85.48
2019-01-21T01:36:10.290Z,85.44
2019-01-21T01:38:37.950Z,85.54
2019-01-21T01:41:05.557Z,85.57
2019-01-21T01:43:33.241Z,85.67
2019-01-21T01:46:00.819Z,85.89
2019-01-21T01:48:28.511Z,86.11
2019-01-21T01:50:58.986Z,85.97
2019-01-21T01:53:26.917Z,86.02
2019-01-21T01:55:55.440Z,85.74
2019-01-21T01:58:23.121Z,85.59
2019-01-21T02:00:50.723Z,85.40
2019-01-21T02:03:18.396Z,85.29
2019-01-21T02:05:45.989Z,85.31
2019-01-21T02:08:13.985Z,85.16
2019-01-21T02:10:41.600Z,85.36
2019-01-21T02:13:09.232Z,85.46
2019-01-21T02:15:37.191Z,85.64
2019-01-21T02:18:04.840Z,85.91
2019-01-21T02:20:35.277Z,86.18
2019-01-21T02:23:04.483Z,86.11
2019-01-21T02:25:48.147Z,85.86
2019-01-21T02:28:19.206Z,86.15
2019-01-21T02:31:28.239Z,86.24
2019-01-21T02:34:32.017Z,86.20
2019-01-21T02:37:31.977Z,86.06
2019-01-21T02:40:23.135Z,86.30
2019-01-21T02:43:32.232Z,86.12
2019-01-21T02:47:01.022Z,86.25
2019-01-21T02:50:02.776Z,86.46
2019-01-21T02:53:33.624Z,86.33
2019-01-21T02:56:58.221Z,86.61
2019-01-21T03:00:09.803Z,86.90
2019-01-21T03:03:34.317Z,86.67
2019-01-21T03:06:27.790Z,86.83
2019-01-21T03:09:31.979Z,86.57
2019-01-21T03:12:40.620Z,86.64
2019-01-21T03:15:50.133Z,86.58
2019-01-21T03:18:54.179Z,86.70
2019-01-21T03:21:35.679Z,86.85
2019-01-21T03:24:33.433Z,86.76
2019-01-21T03:27:54.668Z,87.01
2019-01-21T03:30:50.750Z,87.07
2019-01-21T03:33:46.481Z,87.13
2019-01-21T03:36:34.329Z,86.77
2019-01-21T03:39:38.300Z,86.84
2019-01-21T03:42:19.645Z,86.85
2019-01-21T03:45:23.805Z,86.94
2019-01-21T03:48:23.344Z,86.91
2019-01-21T03:51:27.204Z,87.00
2019-01-21T03:54:25.545Z,87.29
2019-01-21T03:57:05.876Z,87.15
2019-01-21T03:59:51.814Z,87.19
2019-01-21T04:03:02.806Z,87.33
2019-01-21T04:05:36.419Z,87.30
2019-01-21T04:08:51.058Z,87.13
2019-01-21T04:12:06.736Z,87.06
2019-01-21T04:15:24.433Z,86.99
2019-01-21T04:18:40.466Z,87.16
2019-01-21T04:22:02.322Z,87.11
2019-01-21T04:25:11.715Z,87.33
2019-01-21T04:28:08.923Z,87.04
2019-01-21T04:31:07.337Z,87.15
2019-01-21T04:34:34.781Z,87.08
2019-01-21T04:37:34.840Z,86.80
2019-01-21T04:40:15.412Z,86.98
2019-01-21T04:43:15.022Z,87.09
2019-01-21T04:46:03.651Z,86.79
2019-01-21T04:49:00.529Z,86.86
2019-01-21T04:52:02.153Z,86.75
2019-01-21T04:54:54.449Z,86.92
2019-01-21T04:57:58.247Z,86.88
2019-01-21T05:01:23.313Z,86.69
2019-01-21T05:04:29.406Z,86.44
2019-01-21T05:07:10.824Z,86.55
2019-01-21T05:09:51.924Z,86.54
2019-01-21T05:12:40.854Z,86.46
2019-01-21T05:15:46.250Z,86.60
2019-01-21T05:19:00.356Z,86.57
2019-01-21T05:22:23.823Z,86.63
2019-01-21T05:25:28.044Z,86.60
2019-01-21T05:28:48.244Z,86.60
2019-01-21T05:31:47.476Z,86.58
2019-01-21T05:35:05.264Z,86.36
2019-01-21T05:38:13.826Z,86.34
2019-01-21T05:41:19.813Z,86.26
2019-01-21T05:44:26.598Z,86.36
2019-01-21T05:47:53.784Z,86.03
2019-01-21T05:51:27.468Z,86.10
2019-01-21T05:54:45.382Z,86.08
2019-01-21T05:57:49.380Z,86.28
2019-01-21T06:01:07.594Z,86.12
2019-01-21T06:04:23.148Z,86.14
2019-01-21T06:07:04.403Z,86.07
2019-01-21T06:09:51.514Z,86.18
2019-01-21T06:12:47.990Z,86.08
2019-01-21T06:16:05.610Z,86.22
2019-01-21T06:19:24.078Z,86.27
2019-01-21T06:22:42.227Z,86.22
2019-01-21T06:26:01.342Z,86.90
2019-01-21T06:28:55.022Z,86.88
2019-01-21T06:32:07.383Z,87.10
2019-01-21T06:35:12.734Z,86.97
2019-01-21T06:38:18.196Z,87.04
2019-01-21T06:41:12.781Z,87.22
2019-01-21T06:44:17.620Z,86.78
2019-01-21T06:47:35.263Z,86.60
2019-01-21T06:50:52.874Z,86.41
2019-01-21T06:54:04.003Z,86.32
2019-01-21T06:57:12.318Z,86.44
2019-01-21T07:00:21.082Z,86.41
2019-01-21T07:03:31.609Z,86.54
2019-01-21T07:06:22.715Z,87.07
2019-01-21T07:09:15.671Z,87.54
2019-01-21T07:12:05.316Z,87.23
2019-01-21T07:15:11.824Z,86.58
2019-01-21T07:18:17.046Z,85.86
2019-01-21T07:21:19.956Z,85.65
2019-01-21T07:24:10.140Z,85.73
2019-01-21T07:27:15.456Z,85.51
2019-01-21T07:30:01.343Z,85.57
2019-01-21T07:32:50.946Z,85.20
2019-01-21T07:35:57.381Z,85.00
2019-01-21T07:38:56.349Z,84.96
2019-01-21T07:41:47.099Z,84.81
2019-01-21T07:44:37.007Z,84.39
2019-01-21T07:47:38.116Z,84.22
2019-01-21T07:50:30.219Z,84.84
2019-01-21T07:53:34.405Z,84.99
2019-01-21T07:56:42.581Z,84.74
2019-01-21T07:59:47.807Z,84.26
2019-01-21T08:03:15.354Z,84.19
2019-01-21T08:06:20.680Z,84.14
2019-01-21T08:09:20.350Z,84.18
2019-01-21T08:12:32.473Z,84.17
2019-01-21T08:15:26.278Z,84.22
2019-01-21T08:18:35.666Z,83.79
2019-01-21T08:21:17.704Z,83.73
2019-01-21T08:24:03.411Z,83.88
2019-01-21T08:27:18.767Z,83.91
2019-01-21T08:30:34.084Z,83.89
2019-01-21T08:33:23.119Z,84.03
2019-01-21T08:36:31.115Z,84.18
2019-01-21T08:39:21.063Z,84.14
2019-01-21T08:42:39.280Z,84.03
2019-01-21T08:45:39.267Z,84.08
2019-01-21T08:48:38.394Z,84.04
2019-01-21T08:51:51.194Z,83.86
2019-01-21T08:54:32.398Z,84.35
2019-01-21T08:57:36.417Z,84.71
2019-01-21T09:00:54.018Z,84.78
2019-01-21T09:04:12.065Z,85.13
2019-01-21T09:07:15.618Z,84.92
2019-01-21T09:10:12.083Z,84.86
2019-01-21T09:13:10.195Z,84.97
2019-01-21T09:16:30.380Z,85.27
2019-01-21T09:19:27.107Z,85.12
2019-01-21T09:22:04.492Z,85.09
2019-01-21T09:25:17.233Z,85.19
2019-01-21T09:28:06.094Z,85.13
2019-01-21T09:31:27.249Z,84.93
2019-01-21T09:34:33.034Z,85.00
2019-01-21T09:37:26.024Z,84.74
2019-01-21T09:40:30.894Z,84.61
2019-01-21T09:43:17.674Z,84.55
2019-01-21T09:46:08.563Z,84.88
2019-01-21T09:48:35.041Z,85.07
2019-01-21T09:51:05.215Z,85.17
2019-01-21T09:53:33.231Z,85.26
2019-01-21T09:56:00.947Z,85.37
2019-01-21T09:58:29.134Z,85.33
2019-01-21T10:00:58.263Z,85.27
2019-01-21T10:03:25.895Z,85.42
2019-01-21T10:05:57.009Z,85.49
2019-01-21T10:08:58.700Z,85.18
2019-01-21T10:11:45.187Z,85.30
2019-01-21T10:14:46.380Z,85.72
2019-01-21T10:18:07.212Z,85.80
2019-01-21T10:21:22.747Z,85.90
2019-01-21T10:24:25.990Z,85.17
2019-01-21T10:27:34.620Z,84.75
2019-01-21T10:30:44.010Z,84.86
2019-01-21T10:33:52.463Z,84.90
2019-01-21T10:37:17.412Z,84.63
2019-01-21T10:40:25.992Z,84.09
2019-01-21T10:43:40.735Z,84.56
2019-01-21T10:46:17.945Z,84.43
2019-01-21T10:49:36.468Z,84.31
2019-01-21T10:52:49.321Z,84.17
2019-01-21T10:55:56.241Z,83.85
2019-01-21T10:58:37.066Z,83.89
2019-01-21T11:02:05.034Z,83.69
2019-01-21T11:05:17.325Z,83.74
2019-01-21T11:08:40.799Z,83.97
2019-01-21T11:11:56.201Z,84.06
2019-01-21T11:15:08.448Z,84.10
2019-01-21T11:18:17.155Z,83.47
2019-01-21T11:21:18.998Z,83.68
2019-01-21T11:24:49.828Z,83.51
2019-01-21T11:27:55.257Z,83.57
2019-01-21T11:31:05.921Z,83.53
2019-01-21T11:33:56.703Z,83.83
2019-01-21T11:36:57.786Z,83.76
2019-01-21T11:40:05.575Z,83.51
2019-01-21T11:43:23.821Z,83.48
2019-01-21T11:46:21.755Z,83.38
2019-01-21T11:49:15.822Z,82.97
2019-01-21T11:52:17.795Z,83.48
2019-01-21T11:55:33.476Z,83.51
2019-01-21T11:58:58.184Z,83.02
2019-01-21T12:01:55.730Z,82.99
2019-01-21T12:04:54.167Z,81.63
2019-01-21T12:07:50.478Z,81.87
2019-01-21T12:10:42.177Z,81.92
2019-01-21T12:13:22.421Z,81.43
2019-01-21T12:16:25.645Z,81.20
2019-01-21T12:19:26.912Z,80.52
2019-01-21T12:22:29.806Z,80.84
2019-01-21T12:25:11.244Z,80.02
2019-01-21T12:28:07.011Z,78.89
2019-01-21T12:31:05.564Z,78.52
2019-01-21T12:33:58.694Z,78.25
2019-01-21T12:36:50.957Z,79.44
2019-01-21T12:40:06.678Z,79.38
2019-01-21T12:42:51.398Z,79.86
2019-01-21T12:45:53.754Z,78.07
2019-01-21T12:49:05.421Z,79.16
2019-01-21T12:52:02.012Z,78.90
2019-01-21T12:54:46.461Z,77.89
2019-01-21T12:57:54.691Z,77.29
2019-01-21T13:00:44.511Z,77.05
2019-01-21T13:03:59.271Z,77.56
2019-01-21T13:07:08.670Z,76.85
2019-01-21T13:10:42.587Z,77.81
2019-01-21T13:13:51.028Z,77.46
2019-01-21T13:17:00.630Z,77.09
2019-01-21T13:19:54.966Z,77.56
2019-01-21T13:23:10.439Z,77.85
2019-01-21T13:26:08.580Z,77.75
2019-01-21T13:29:10.550Z,78.12
2019-01-21T13:32:28.979Z,77.99
2019-01-21T13:35:31.822Z,76.95
2019-01-21T13:38:43.097Z,76.61
2019-01-21T13:41:39.710Z,76.74
2019-01-21T13:44:48.146Z,76.95
2019-01-21T13:48:13.576Z,76.04
2019-01-21T13:51:20.996Z,75.56
2019-01-21T13:54:31.303Z,75.32
2019-01-21T13:57:25.434Z,76.14
2019-01-21T14:00:30.088Z,75.70
2019-01-21T14:03:38.349Z,75.84
2019-01-21T14:06:25.192Z,76.27
2019-01-21T14:09:42.387Z,76.04
2019-01-21T14:12:21.920Z,75.49
2019-01-21T14:15:18.174Z,75.55
2019-01-21T14:18:23.428Z,75.58
2019-01-21T14:21:00.760Z,75.30
2019-01-21T14:24:21.367Z,74.73
2019-01-21T14:27:29.160Z,75.80
2019-01-21T14:30:41.727Z,75.65
2019-01-21T14:33:35.005Z,75.92
2019-01-21T14:37:02.733Z,75.60
2019-01-21T14:39:42.252Z,75.86
2019-01-21T14:42:55.054Z,75.80
2019-01-21T14:45:51.206Z,75.83
2019-01-21T14:49:04.612Z,75.85
2019-01-21T14:52:18.242Z,76.05
2019-01-21T14:55:00.431Z,75.48
2019-01-21T14:58:09.991Z,75.38
2019-01-21T15:01:22.345Z,75.15
2019-01-21T15:04:44.095Z,75.20
2019-01-21T15:07:22.914Z,75.14
2019-01-21T15:10:19.836Z,75.20
2019-01-21T15:13:10.884Z,75.35
2019-01-21T15:15:56.952Z,75.76
2019-01-21T15:18:55.937Z,75.27
2019-01-21T15:22:20.584Z,75.58
2019-01-21T15:25:29.873Z,75.62
2019-01-21T15:28:41.372Z,75.43
2019-01-21T15:32:06.767Z,75.28
2019-01-21T15:34:53.850Z,75.37
2019-01-21T15:38:00.378Z,75.68
2019-01-21T15:41:28.280Z,75.18
2019-01-21T15:44:11.420Z,74.92
2019-01-21T15:47:08.684Z,75.76
2019-01-21T15:49:55.215Z,76.17
2019-01-21T15:52:32.235Z,76.53
2019-01-21T15:55:46.381Z,76.01
2019-01-21T15:58:45.189Z,76.33
2019-01-21T16:01:46.923Z,76.39
2019-01-21T16:04:37.806Z,77.15
2019-01-21T16:07:28.823Z,77.04
2019-01-21T16:10:47.502Z,76.40
2019-01-21T16:13:48.640Z,76.78
2019-01-21T16:16:40.954Z,76.87
2019-01-21T16:19:17.855Z,76.53
2019-01-21T16:22:32.177Z,76.25
2019-01-21T16:25:35.148Z,76.41
2019-01-21T16:28:31.154Z,76.56
2019-01-21T16:31:23.509Z,76.52
2019-01-21T16:34:24.591Z,76.59
2019-01-21T16:37:17.576Z,76.71
2019-01-21T16:40:28.671Z,76.82
2019-01-21T16:42:56.418Z,77.28
2019-01-21T16:45:24.158Z,77.98
2019-01-21T16:47:51.932Z,78.49
2019-01-21T16:50:19.636Z,79.67
2019-01-21T16:52:50.183Z,80.17
2019-01-21T16:55:18.043Z,80.18
2019-01-21T16:57:45.964Z,80.62
2019-01-21T17:00:14.507Z,80.72
2019-01-21T17:02:42.349Z,80.26
2019-01-21T17:05:10.488Z,80.16
2019-01-21T17:07:38.246Z,79.60
2019-01-21T17:10:07.782Z,79.21
2019-01-21T17:12:35.952Z,79.22
2019-01-21T17:15:07.170Z,78.88
2019-01-21T17:17:34.975Z,78.24
2019-01-21T17:20:03.812Z,78.38
2019-01-21T17:22:31.643Z,78.39
2019-01-21T17:24:59.523Z,78.08
2019-01-21T17:27:27.309Z,78.12
2019-01-21T17:29:55.199Z,78.03
2019-01-21T17:32:23.980Z,78.02
2019-01-21T17:34:51.912Z,77.97
2019-01-21T17:37:19.740Z,78.04
2019-01-21T17:39:47.737Z,77.68
2019-01-21T17:42:15.652Z,77.84
2019-01-21T17:44:43.845Z,78.06
2019-01-21T17:47:13.271Z,78.03
2019-01-21T17:49:41.135Z,78.17
2019-01-21T17:52:09.283Z,77.98
2019-01-21T17:54:37.143Z,77.71
2019-01-21T17:57:05.206Z,77.87
2019-01-21T17:59:32.999Z,77.28
2019-01-21T18:02:00.930Z,77.29
2019-01-21T18:04:28.995Z,76.87
2019-01-21T18:06:56.930Z,76.96
2019-01-21T18:09:24.882Z,76.75
2019-01-21T18:11:52.879Z,76.74
2019-01-21T18:14:20.748Z,76.86
2019-01-21T18:16:48.613Z,77.06
2019-01-21T18:19:16.497Z,77.32
2019-01-21T18:21:44.360Z,77.25
2019-01-21T18:24:12.234Z,77.19
2019-01-21T18:26:40.051Z,77.11
2019-01-21T18:29:07.959Z,77.08
2019-01-21T18:31:35.765Z,76.87
2019-01-21T18:34:04.785Z,76.37
2019-01-21T18:36:33.676Z,76.69
2019-01-21T18:39:07.534Z,76.40
2019-01-21T18:41:37.761Z,76.66
2019-01-21T18:44:05.963Z,76.76
2019-01-21T18:46:34.766Z,77.13
2019-01-21T18:49:03.142Z,77.46
2019-01-21T18:51:33.233Z,77.51
2019-01-21T18:54:01.098Z,77.66
2019-01-21T18:56:29.642Z,77.61
2019-01-21T18:58:57.619Z,77.28
2019-01-21T19:01:27.659Z,77.47
2019-01-21T19:03:55.493Z,77.80
2019-01-21T19:06:23.541Z,78.50
2019-01-21T19:08:51.464Z,78.68
2019-01-21T19:11:19.399Z,78.59
2019-01-21T19:13:47.292Z,78.72
2019-01-21T19:16:15.765Z,78.92
2019-01-21T19:18:43.691Z,78.75
2019-01-21T19:21:11.487Z,79.00
2019-01-21T19:23:40.430Z,79.14
2019-01-21T19:26:08.332Z,78.90
2019-01-21T19:28:36.288Z,78.42
2019-01-21T19:31:04.119Z,78.20
2019-01-21T19:33:32.016Z,78.87
2019-01-21T19:36:00.855Z,78.83
2019-01-21T19:38:28.749Z,77.99
2019-01-21T19:40:56.683Z,77.82
2019-01-21T19:43:24.908Z,79.11
2019-01-21T19:45:53.464Z,79.99
2019-01-21T19:48:21.337Z,80.26
2019-01-21T19:50:49.260Z,80.65
2019-01-21T19:53:17.100Z,80.88
2019-01-21T19:55:45.300Z,80.98
2019-01-21T19:58:13.452Z,81.04
2019-01-21T20:00:41.566Z,80.86
2019-01-21T20:03:09.855Z,80.90
2019-01-21T20:05:38.817Z,80.99
2019-01-21T20:08:07.436Z,81.27
2019-01-21T20:10:35.775Z,81.35
2019-01-21T20:13:03.994Z,81.19
2019-01-21T20:15:32.066Z,81.15
2019-01-21T20:18:01.414Z,81.43
2019-01-21T20:20:31.817Z,81.42
2019-01-21T20:22:59.878Z,81.73
2019-01-21T20:25:27.635Z,82.09
2019-01-21T20:27:55.936Z,82.19
2019-01-21T20:30:23.992Z,81.97
2019-01-21T20:32:52.081Z,81.87
2019-01-21T20:35:20.148Z,81.81
2019-01-21T20:37:48.350Z,81.72
2019-01-21T20:40:18.763Z,81.67
2019-01-21T20:42:47.281Z,82.05
2019-01-21T20:45:16.789Z,82.24
2019-01-21T20:47:44.820Z,82.46
2019-01-21T20:50:16.046Z,82.56
2019-01-21T20:52:44.522Z,82.61
2019-01-21T20:55:12.891Z,82.60
2019-01-21T20:57:41.042Z,82.67
2019-01-21T21:00:15.422Z,82.55
2019-01-21T21:02:43.637Z,82.39
2019-01-21T21:05:11.971Z,82.55
2019-01-21T21:07:39.629Z,82.48
2019-01-21T21:10:08.219Z,82.71
2019-01-21T21:12:37.019Z,82.60
2019-01-21T21:15:08.015Z,82.76
2019-01-21T21:17:36.182Z,82.84
2019-01-21T21:20:04.728Z,83.01
2019-01-21T21:22:32.371Z,82.61
2019-01-21T21:25:00.245Z,82.57
2019-01-21T21:27:28.401Z,82.43
2019-01-21T21:29:56.143Z,82.70
2019-01-21T21:32:23.949Z,83.17
2019-01-21T21:34:51.829Z,83.27
2019-01-21T21:37:19.973Z,83.16
2019-01-21T21:39:47.541Z,83.82
2019-01-21T21:42:15.128Z,83.98
2019-01-21T21:44:43.179Z,84.23
2019-01-21T21:47:10.731Z,84.06
2019-01-21T21:49:38.298Z,84.60
2019-01-21T21:52:05.990Z,83.93
2019-01-21T21:54:33.534Z,83.54
2019-01-21T21:57:01.344Z,83.26
2019-01-21T21:59:28.868Z,83.96
2019-01-21T22:01:56.701Z,84.19
2019-01-21T22:04:24.327Z,84.03
2019-01-21T22:06:53.005Z,83.89
2019-01-21T22:09:20.785Z,83.60
2019-01-21T22:11:48.601Z,82.79
2019-01-21T22:14:16.205Z,83.29
2019-01-21T22:16:43.964Z,83.54
2019-01-21T22:19:11.823Z,83.15
2019-01-21T22:21:39.398Z,82.51
2019-01-21T22:24:07.515Z,82.79
2019-01-21T22:26:35.520Z,82.17
2019-01-21T22:29:03.347Z,82.52
2019-01-21T22:31:31.378Z,82.27
2019-01-21T22:33:59.771Z,82.30
2019-01-21T22:36:27.766Z,82.25
2019-01-21T22:38:57.868Z,82.39
2019-01-21T22:41:25.776Z,82.65
2019-01-21T22:43:54.131Z,82.78
2019-01-21T22:46:22.067Z,83.11
2019-01-21T22:48:49.966Z,82.77
2019-01-21T22:51:18.228Z,82.89
2019-01-21T22:53:46.417Z,83.00
2019-01-21T22:56:14.423Z,83.26
2019-01-21T22:58:42.349Z,83.31
2019-01-21T23:01:35.721Z,83.53
2019-01-21T23:04:03.891Z,83.52
2019-01-21T23:06:31.864Z,83.41
2019-01-21T23:08:59.711Z,83.96
2019-01-21T23:11:27.743Z,84.08
2019-01-21T23:13:56.193Z,83.86
2019-01-21T23:16:24.161Z,84.16
2019-01-21T23:18:52.000Z,84.49
2019-01-21T23:21:20.039Z,84.19
2019-01-21T23:23:47.843Z,84.47
2019-01-21T23:26:15.828Z,84.18
2019-01-21T23:28:43.773Z,84.25
2019-01-21T23:31:11.853Z,84.18
2019-01-21T23:33:39.634Z,84.32
2019-01-21T23:36:07.780Z,83.77
2019-01-21T23:38:35.535Z,83.68
2019-01-21T23:41:03.629Z,83.53
2019-01-21T23:43:32.089Z,83.58
2019-01-21T23:46:01.641Z,83.47
2019-01-21T23:48:29.619Z,83.44
2019-01-21T23:50:57.762Z,83.42
2019-01-21T23:53:25.585Z,83.89
2019-01-21T23:55:53.629Z,83.74
2019-01-21T23:58:21.964Z,83.65
